Time;durP1;ratioP1;P1;durP2;ratioP2;P2;SDS_P1;SDS_P2;PMS_P1;PMS_P2;Temp;Humidity;BMP_temperature;BMP_pressure;BME280_temperature;BME280_humidity;BME280_pressure;Samples;Min_cycle;Max_cycle;Signal;HPM_P1;HPM_P2
2023/08/26 16:20:55;;;;;;;;;1.00;1.00;;;;;23.43;52.51;100788.78;5072992;27;45565;-75
2023/08/26 16:23:21;;;;;;;;;2.00;2.00;;;;;23.58;52.50;100793.53;5080673;27;45927;-81
2023/08/26 16:25:46;;;;;;;;;3.00;1.33;;;;;23.76;52.17;100796.09;5066075;28;46013;-75
2023/08/26 16:28:12;;;;;;;;;1.00;1.00;;;;;23.98;51.65;100788.28;5067787;28;51166;-75
2023/08/26 16:30:37;;;;;;;;;2.33;2.00;;;;;24.20;51.34;100789.47;5063862;28;45936;-76
2023/08/26 16:33:03;;;;;;;;;3.00;0.67;;;;;24.43;51.08;100782.47;5064918;27;45695;-76
2023/08/26 16:35:29;;;;;;;;;1.00;1.00;;;;;24.67;50.79;100781.56;5065651;27;45759;-77
2023/08/26 16:37:54;;;;;;;;;1.33;1.00;;;;;24.89;49.91;100781.84;5068681;28;45751;-78
2023/08/26 16:40:19;;;;;;;;;2.00;2.00;;;;;25.11;50.10;100782.06;5066089;27;47202;-76
2023/08/26 16:42:45;;;;;;;;;2.67;1.00;;;;;25.30;49.60;100777.22;5063640;27;45492;-77
2023/08/26 16:45:10;;;;;;;;;1.00;1.00;;;;;25.48;49.67;100776.91;5061520;27;55240;-74
2023/08/26 16:47:36;;;;;;;;;1.33;1.33;;;;;25.64;49.09;100765.13;5066881;28;45539;-78
2023/08/26 16:50:03;;;;;;;;;3.00;1.00;;;;;25.81;49.10;100765.81;5067009;28;45576;-75
2023/08/26 16:52:29;;;;;;;;;1.00;1.00;;;;;25.95;48.41;100764.16;5068530;27;45643;-77
2023/08/26 16:54:54;;;;;;;;;2.00;0.33;;;;;26.10;48.42;100764.19;5065838;28;45608;-77
2023/08/26 16:57:19;;;;;;;;;2.00;2.00;;;;;26.21;48.67;100767.47;5064146;27;45483;-78
2023/08/26 16:59:45;;;;;;;;;2.00;2.00;;;;;26.32;47.99;100769.75;5063218;27;45517;-80
2023/08/26 17:02:10;;;;;;;;;1.67;1.00;;;;;26.43;48.12;100776.63;5064961;28;45521;-76
2023/08/26 17:04:35;;;;;;;;;3.00;1.00;;;;;26.52;47.32;100774.66;5065052;27;45911;-79
2023/08/26 17:07:01;;;;;;;;;3.00;3.00;;;;;26.62;46.88;100774.38;5065225;27;53845;-81
2023/08/26 17:09:26;;;;;;;;;3.00;2.00;;;;;26.70;46.73;100769.66;5065467;28;45525;-77
2023/08/26 17:11:54;;;;;;;;;2.33;2.33;;;;;26.78;46.28;100771.44;5059258;27;45508;-76
2023/08/26 17:14:20;;;;;;;;;1.00;1.00;;;;;26.86;46.49;100775.09;5062649;27;45447;-76
2023/08/26 17:16:45;;;;;;;;;1.33;1.33;;;;;26.92;45.91;100768.88;5067400;28;45498;-74
2023/08/26 17:19:10;;;;;;;;;0.33;0.33;;;;;27.00;46.26;100776.97;5065326;28;46156;-77
2023/08/26 17:21:36;;;;;;;;;2.00;2.00;;;;;27.03;45.96;100776.59;5062467;27;56745;-77
2023/08/26 17:24:01;;;;;;;;;1.00;1.00;;;;;27.05;45.87;100776.41;5060587;27;47009;-76
2023/08/26 17:26:26;;;;;;;;;1.00;1.00;;;;;27.07;45.75;100769.72;5063000;28;45530;-76
2023/08/26 17:28:52;;;;;;;;;0.33;0.33;;;;;27.13;46.07;100759.94;5062667;28;49627;-77
2023/08/26 17:31:17;;;;;;;;;1.33;0.67;;;;;27.19;45.47;100763.78;5059716;27;45518;-77
2023/08/26 17:33:42;;;;;;;;;2.00;2.00;;;;;27.23;45.93;100765.91;5050545;28;47183;-76
2023/08/26 17:36:07;;;;;;;;;2.00;2.00;;;;;27.28;45.76;100757.16;5041137;28;45474;-76
2023/08/26 17:38:33;;;;;;;;;3.00;1.67;;;;;27.34;45.04;100761.81;5054099;28;45610;-76
2023/08/26 17:40:58;;;;;;;;;1.00;1.00;;;;;27.32;45.19;100760.34;5054593;28;45419;-77
2023/08/26 17:43:24;;;;;;;;;4.00;1.33;;;;;27.33;45.07;100759.28;5054002;28;45895;-77
2023/08/26 17:45:52;;;;;;;;;1.00;1.00;;;;;27.34;45.33;100753.66;5053249;28;45423;-77
2023/08/26 17:48:18;;;;;;;;;1.33;1.00;;;;;27.42;44.96;100760.03;5051415;28;46933;-77
2023/08/26 17:50:53;;;;;;;;;3.00;2.00;;;;;27.45;44.90;100756.91;5052320;28;45492;-77
2023/08/26 17:53:20;;;;;;;;;1.67;1.67;;;;;27.48;44.42;100757.38;5049177;28;45551;-76
2023/08/26 17:55:45;;;;;;;;;1.67;1.00;;;;;27.52;44.89;100765.13;5052719;28;45393;-76
2023/08/26 17:58:12;;;;;;;;;1.00;1.00;;;;;27.52;44.12;100757.81;5053739;28;46006;-76
2023/08/26 18:00:41;;;;;;;;;1.00;0.33;;;;;27.52;45.01;100765.13;5050738;28;45526;-76
2023/08/26 18:03:07;;;;;;;;;1.00;1.00;;;;;27.50;44.39;100762.59;5051091;28;45652;-76
2023/08/26 18:05:33;;;;;;;;;1.00;1.00;;;;;27.47;43.85;100761.09;5048944;28;45495;-75
2023/08/26 18:08:00;;;;;;;;;2.67;1.00;;;;;27.48;44.20;100748.34;5059040;28;46174;-77
2023/08/26 18:10:25;;;;;;;;;1.00;1.00;;;;;27.53;44.04;100759.50;5056015;28;45405;-79
2023/08/26 18:12:50;;;;;;;;;1.00;1.00;;;;;27.56;43.82;100759.13;5063337;27;45387;-77
2023/08/26 18:15:16;;;;;;;;;3.33;3.33;;;;;27.56;43.44;100758.25;5049447;28;45775;-79
